Time;durP1;ratioP1;P1;durP2;ratioP2;P2;SDS_P1;SDS_P2;PMS_P1;PMS_P2;Temp;Humidity;BMP_temperature;BMP_pressure;BME280_temperature;BME280_humidity;BME280_pressure;Samples;Min_cycle;Max_cycle;Signal;HPM_P1;HPM_P2
2022/11/07 00:00:06;;;;;;;14.95;10.60;;;23.60;53.30;;;;;;6188774;28;82856;-58
2022/11/07 00:03:11;;;;;;;15.02;10.32;;;23.50;53.20;;;;;;6192729;28;83097;-57
2022/11/07 00:06:12;;;;;;;16.50;10.55;;;23.50;53.10;;;;;;6195365;28;83030;-56
2022/11/07 00:09:12;;;;;;;15.85;11.48;;;23.50;53.30;;;;;;6194305;28;86150;-55
2022/11/07 00:12:13;;;;;;;14.55;10.52;;;23.50;53.20;;;;;;6195550;28;83092;-55
2022/11/07 00:15:13;;;;;;;14.65;10.68;;;23.50;53.10;;;;;;6194554;28;83480;-56
2022/11/07 00:18:14;;;;;;;12.32;9.50;;;23.50;53.10;;;;;;6195958;28;82932;-54
2022/11/07 00:21:15;;;;;;;13.05;10.40;;;23.50;53.20;;;;;;6187201;28;87878;-68
2022/11/07 00:24:18;;;;;;;12.45;9.77;;;23.50;53.00;;;;;;6194878;28;83251;-73
2022/11/07 00:27:19;;;;;;;13.85;10.20;;;23.50;53.10;;;;;;6188706;28;88149;-71
2022/11/07 00:30:19;;;;;;;14.77;11.02;;;23.50;53.10;;;;;;6190995;28;82784;-70
2022/11/07 00:33:20;;;;;;;13.00;9.90;;;23.50;53.00;;;;;;6198013;28;83838;-71
2022/11/07 00:36:20;;;;;;;12.60;10.00;;;23.50;53.20;;;;;;6203139;28;81847;-74
2022/11/07 00:39:21;;;;;;;11.43;9.02;;;23.50;53.30;;;;;;6200535;28;82787;-74
2022/11/07 00:42:21;;;;;;;14.15;10.27;;;23.50;53.30;;;;;;6199206;28;83546;-74
2022/11/07 00:45:22;;;;;;;11.38;9.35;;;23.50;53.10;;;;;;6195189;28;86271;-73
2022/11/07 00:48:22;;;;;;;11.95;9.32;;;23.50;53.30;;;;;;6204483;28;82985;-74
2022/11/07 00:51:23;;;;;;;11.27;9.18;;;23.40;53.20;;;;;;6199845;28;80938;-72
2022/11/07 00:54:23;;;;;;;11.63;8.90;;;23.50;53.20;;;;;;6200114;28;80144;-72
2022/11/07 00:57:24;;;;;;;11.85;9.63;;;23.50;53.00;;;;;;6197120;28;84295;-56
2022/11/07 01:00:24;;;;;;;12.07;8.95;;;23.50;53.30;;;;;;6198477;28;80730;-56
2022/11/07 01:06:44;;;;;;;10.73;8.52;;;23.50;53.10;;;;;;6179868;28;84043;-58
2022/11/07 01:09:44;;;;;;;11.20;8.90;;;23.50;53.10;;;;;;6200427;28;80412;-56
2022/11/07 01:12:45;;;;;;;10.98;8.95;;;23.50;53.10;;;;;;6196518;28;80739;-54
2022/11/07 01:15:45;;;;;;;9.88;8.30;;;23.50;53.10;;;;;;6177432;28;80227;-53
2022/11/07 01:18:46;;;;;;;11.45;8.77;;;23.50;53.00;;;;;;6175892;28;80632;-53
2022/11/07 01:21:46;;;;;;;9.98;8.23;;;23.50;53.00;;;;;;6195321;28;80832;-53
2022/11/07 01:24:47;;;;;;;10.30;7.68;;;23.40;53.00;;;;;;6176923;28;83996;-55
2022/11/07 01:27:47;;;;;;;11.68;8.52;;;23.40;53.10;;;;;;6180390;28;81301;-56
2022/11/07 01:30:48;;;;;;;9.77;7.57;;;23.40;53.20;;;;;;6196116;28;83335;-55
2022/11/07 01:33:48;;;;;;;8.68;7.47;;;23.40;53.10;;;;;;6174732;28;80465;-56
2022/11/07 01:36:49;;;;;;;8.93;6.95;;;23.40;52.90;;;;;;6177903;28;84196;-55
2022/11/07 01:39:49;;;;;;;10.40;8.40;;;23.40;53.10;;;;;;6178725;28;80285;-56
2022/11/07 01:42:50;;;;;;;9.80;7.43;;;23.40;52.80;;;;;;6198191;28;81226;-56
2022/11/07 01:45:50;;;;;;;10.32;7.78;;;23.40;52.70;;;;;;6199162;28;81265;-57
2022/11/07 01:48:51;;;;;;;10.15;7.85;;;23.50;52.80;;;;;;6196598;28;80830;-55
2022/11/07 01:51:51;;;;;;;8.95;7.50;;;23.50;52.60;;;;;;6178948;28;80565;-58
2022/11/07 01:54:52;;;;;;;9.15;7.50;;;23.50;52.60;;;;;;6198414;28;80465;-58
2022/11/07 01:57:53;;;;;;;10.07;8.32;;;23.40;52.30;;;;;;6169466;28;80543;-58
2022/11/07 02:00:53;;;;;;;9.65;7.63;;;23.40;52.40;;;;;;6174073;28;80252;-59
2022/11/07 02:03:54;;;;;;;12.25;8.40;;;23.40;52.40;;;;;;6179963;28;80518;-58
2022/11/07 02:06:54;;;;;;;9.20;7.57;;;23.40;52.30;;;;;;6194218;28;80870;-58
2022/11/07 02:09:55;;;;;;;9.02;7.45;;;23.40;52.20;;;;;;6180162;28;80720;-58
2022/11/07 02:12:55;;;;;;;9.90;7.88;;;23.40;52.30;;;;;;6197337;28;80400;-58
2022/11/07 02:15:56;;;;;;;9.13;7.82;;;23.40;52.10;;;;;;6174936;28;80046;-58
2022/11/07 02:18:56;;;;;;;8.55;7.13;;;23.40;52.20;;;;;;6175740;28;80711;-58
2022/11/07 02:21:57;;;;;;;10.40;8.07;;;23.40;52.20;;;;;;6173588;28;81087;-57
2022/11/07 02:24:57;;;;;;;11.60;8.07;;;23.40;52.10;;;;;;6177322;28;80691;-58
2022/11/07 02:27:58;;;;;;;9.10;7.32;;;23.30;52.00;;;;;;6182625;28;80311;-58
2022/11/07 02:30:58;;;;;;;7.75;6.50;;;23.40;52.10;;;;;;6190664;28;87909;-58
2022/11/07 02:33:59;;;;;;;8.68;6.25;;;23.40;52.60;;;;;;6174644;28;80365;-58
2022/11/07 02:36:59;;;;;;;8.88;7.10;;;23.40;52.20;;;;;;6180146;28;85389;-58
2022/11/07 02:40:00;;;;;;;8.63;6.70;;;23.30;52.10;;;;;;6193038;28;80821;-58
2022/11/07 02:43:00;;;;;;;8.73;6.75;;;23.30;52.00;;;;;;6175328;28;80952;-58
2022/11/07 02:46:01;;;;;;;9.48;7.15;;;23.40;52.00;;;;;;6173601;28;80708;-58
2022/11/07 02:49:01;;;;;;;9.20;7.35;;;23.40;52.10;;;;;;6175284;28;80808;-58
2022/11/07 02:52:02;;;;;;;9.55;7.47;;;23.40;52.00;;;;;;6173493;28;80496;-58
2022/11/07 02:55:02;;;;;;;7.95;6.47;;;23.40;52.10;;;;;;6174740;28;81109;-58
2022/11/07 02:58:04;;;;;;;9.05;7.05;;;23.40;52.40;;;;;;6167500;28;81101;-58
2022/11/07 03:01:07;;;;;;;10.32;7.40;;;23.40;52.30;;;;;;6175385;28;80476;-57
2022/11/07 03:04:08;;;;;;;8.15;6.78;;;23.40;52.20;;;;;;6171828;28;80604;-68
2022/11/07 03:07:08;;;;;;;8.85;6.75;;;23.40;52.20;;;;;;6174608;28;80588;-67
2022/11/07 03:10:09;;;;;;;7.82;6.10;;;23.40;52.30;;;;;;6142743;28;83479;-67
2022/11/07 03:13:09;;;;;;;8.75;7.00;;;23.40;52.20;;;;;;6176742;28;80416;-70
2022/11/07 03:16:10;;;;;;;8.32;6.40;;;23.40;51.80;;;;;;6169508;28;80458;-68
2022/11/07 03:19:10;;;;;;;7.78;6.63;;;23.40;52.00;;;;;;6176163;28;82000;-68
2022/11/07 03:22:11;;;;;;;7.75;6.45;;;23.40;51.90;;;;;;6173386;28;80390;-68
2022/11/07 03:25:11;;;;;;;7.65;6.50;;;23.40;52.10;;;;;;6174739;28;83637;-70
2022/11/07 03:28:12;;;;;;;8.68;7.22;;;23.40;52.00;;;;;;6176048;28;80261;-69
2022/11/07 03:31:12;;;;;;;8.35;6.55;;;23.40;51.90;;;;;;6178969;28;84035;-68
2022/11/07 03:34:13;;;;;;;7.88;6.43;;;23.40;52.00;;;;;;6198587;28;80351;-69
2022/11/07 03:37:13;;;;;;;8.63;6.35;;;23.40;52.20;;;;;;6190303;28;80411;-69
2022/11/07 03:40:14;;;;;;;7.47;6.20;;;23.30;51.70;;;;;;6177436;28;80579;-69
2022/11/07 03:43:14;;;;;;;7.97;6.25;;;23.30;51.70;;;;;;6179256;28;80339;-67
2022/11/07 03:46:15;;;;;;;7.15;5.95;;;23.30;51.60;;;;;;6188524;28;80959;-68
2022/11/07 03:49:15;;;;;;;7.32;6.03;;;23.30;51.50;;;;;;6173242;28;87459;-69
2022/11/07 03:52:16;;;;;;;9.95;6.93;;;23.30;51.60;;;;;;6174208;28;81989;-72
2022/11/07 03:55:19;;;;;;;8.23;6.35;;;23.30;51.50;;;;;;6176716;28;81206;-70
2022/11/07 03:58:20;;;;;;;7.80;6.03;;;23.30;51.40;;;;;;6164547;28;81934;-69
2022/11/07 04:01:20;;;;;;;6.65;5.93;;;23.30;51.40;;;;;;6188341;28;81346;-57
2022/11/07 04:04:21;;;;;;;7.20;6.10;;;23.30;51.50;;;;;;6176297;28;80637;-57
2022/11/07 04:07:21;;;;;;;7.65;6.70;;;23.30;51.50;;;;;;6189447;28;80969;-55
2022/11/07 04:10:22;;;;;;;8.27;6.22;;;23.30;51.40;;;;;;6191503;28;80243;-58
2022/11/07 04:20:01;;;;;;;6.70;5.65;;;23.30;51.20;;;;;;6178263;28;81268;-58
2022/11/07 04:23:01;;;;;;;6.88;5.97;;;23.30;51.20;;;;;;6192472;28;85081;-58
2022/11/07 04:29:21;;;;;;;7.03;5.68;;;23.40;51.20;;;;;;6177178;28;81145;-56
2022/11/07 04:32:22;;;;;;;7.05;6.20;;;23.40;51.00;;;;;;6178464;28;80937;-56
2022/11/07 04:35:22;;;;;;;6.60;5.90;;;23.40;50.90;;;;;;6193815;28;84783;-56
2022/11/07 04:38:23;;;;;;;7.07;5.68;;;23.50;50.80;;;;;;6182669;28;80910;-69
2022/11/07 04:41:23;;;;;;;6.85;5.78;;;23.50;50.60;;;;;;6196400;28;80427;-68
2022/11/07 04:44:24;;;;;;;7.20;5.80;;;23.50;50.40;;;;;;6182546;28;83104;-68
2022/11/07 04:47:25;;;;;;;6.07;5.45;;;23.50;50.30;;;;;;6173434;28;80982;-69
2022/11/07 04:50:25;;;;;;;7.68;6.38;;;23.60;50.30;;;;;;6174595;28;80779;-69
2022/11/07 04:53:26;;;;;;;6.70;6.00;;;23.60;50.20;;;;;;6197284;28;80659;-69
2022/11/07 04:56:26;;;;;;;6.95;5.68;;;23.60;50.00;;;;;;6182207;28;80646;-69
2022/11/07 04:59:27;;;;;;;8.70;6.65;;;23.70;50.10;;;;;;6174522;28;80926;-68
2022/11/07 05:02:27;;;;;;;7.07;5.97;;;23.70;50.00;;;;;;6176699;28;80403;-66
2022/11/07 05:05:28;;;;;;;6.22;5.57;;;23.70;49.90;;;;;;6179675;28;82754;-68
2022/11/07 05:08:28;;;;;;;6.70;5.65;;;23.70;49.90;;;;;;6174688;28;82343;-69
2022/11/07 05:11:29;;;;;;;7.35;6.05;;;23.70;49.80;;;;;;6174195;28;84362;-73
2022/11/07 05:14:32;;;;;;;6.65;5.90;;;23.70;49.80;;;;;;6178740;28;81895;-74
2022/11/07 05:17:33;;;;;;;8.45;6.43;;;23.70;49.80;;;;;;6172376;28;84655;-74
2022/11/07 05:20:33;;;;;;;7.50;6.00;;;23.70;50.10;;;;;;6174390;28;80319;-74
2022/11/07 05:23:34;;;;;;;8.68;6.55;;;23.70;50.20;;;;;;6177568;28;83010;-73
2022/11/07 05:26:34;;;;;;;7.20;5.90;;;23.80;50.30;;;;;;6190598;28;82038;-74
2022/11/07 05:29:35;;;;;;;7.90;6.45;;;23.70;50.40;;;;;;6177904;28;83181;-72
2022/11/07 05:32:37;;;;;;;7.53;6.43;;;23.80;50.50;;;;;;6160812;28;82098;-66
2022/11/07 05:35:37;;;;;;;8.57;6.82;;;23.70;50.60;;;;;;6169754;28;83393;-64
2022/11/07 05:38:38;;;;;;;12.23;6.60;;;23.70;51.10;;;;;;6180112;28;81433;-66
2022/11/07 05:41:38;;;;;;;8.52;6.75;;;23.70;51.00;;;;;;6192424;28;80727;-68
2022/11/07 05:44:39;;;;;;;8.95;6.75;;;23.80;51.00;;;;;;6174642;28;80803;-70
2022/11/07 05:47:39;;;;;;;10.95;7.38;;;23.80;51.20;;;;;;6163802;28;83190;-70
2022/11/07 05:50:40;;;;;;;10.07;5.80;;;23.80;51.70;;;;;;6181749;28;80975;-64
2022/11/07 05:53:40;;;;;;;10.13;6.05;;;23.70;51.70;;;;;;6177967;28;82606;-62
2022/11/07 05:56:42;;;;;;;8.48;6.15;;;23.80;51.60;;;;;;6174714;28;80899;-65
2022/11/07 05:59:43;;;;;;;11.60;6.72;;;23.70;51.60;;;;;;6168612;28;80764;-66
2022/11/07 06:02:44;;;;;;;9.25;6.50;;;23.70;52.00;;;;;;6188009;28;82026;-64
2022/11/07 06:05:45;;;;;;;10.60;6.63;;;23.70;51.90;;;;;;6178484;28;80549;-64
2022/11/07 06:08:45;;;;;;;9.82;6.55;;;23.80;51.70;;;;;;6171004;28;80410;-70
2022/11/07 06:11:46;;;;;;;12.07;7.18;;;23.70;51.60;;;;;;6173865;28;81716;-62
2022/11/07 06:14:46;;;;;;;10.90;6.82;;;23.70;51.90;;;;;;6170625;28;80919;-62
2022/11/07 06:17:47;;;;;;;10.23;7.47;;;23.70;51.60;;;;;;6171147;28;81491;-63
2022/11/07 06:20:47;;;;;;;12.88;7.47;;;23.70;51.40;;;;;;6175484;28;80804;-63
2022/11/07 06:23:48;;;;;;;9.88;7.38;;;23.70;51.70;;;;;;6196592;28;80208;-68
2022/11/07 06:26:48;;;;;;;13.25;7.80;;;23.70;52.00;;;;;;6171460;28;80467;-56
2022/11/07 06:29:49;;;;;;;13.65;7.18;;;23.70;51.70;;;;;;6176052;28;80490;-59
2022/11/07 06:32:49;;;;;;;18.90;6.43;;;23.70;51.90;;;;;;6176884;28;83731;-59
2022/11/07 06:35:50;;;;;;;14.35;8.40;;;23.70;51.80;;;;;;6192224;28;80353;-59
2022/11/07 06:38:53;;;;;;;9.32;7.28;;;23.70;51.80;;;;;;6190618;28;81369;-60
2022/11/07 06:41:54;;;;;;;14.90;9.93;;;23.70;51.70;;;;;;6174999;28;87084;-64
2022/11/07 06:44:54;;;;;;;15.43;9.73;;;23.70;51.70;;;;;;6197301;28;81996;-62
2022/11/07 06:47:55;;;;;;;16.25;9.02;;;23.70;51.50;;;;;;6179041;28;80616;-65
2022/11/07 06:50:56;;;;;;;16.80;10.23;;;23.70;51.30;;;;;;6185009;28;80634;-64
2022/11/07 06:53:56;;;;;;;19.50;11.32;;;23.70;51.20;;;;;;6081556;28;84960;-60
2022/11/07 06:56:57;;;;;;;17.35;10.50;;;23.70;50.90;;;;;;5959794;28;86264;-61
2022/11/07 06:59:58;;;;;;;19.50;11.07;;;23.70;51.00;;;;;;6145559;28;85277;-65
2022/11/07 07:02:58;;;;;;;20.20;10.98;;;23.70;50.90;;;;;;6174547;28;87567;-58
2022/11/07 07:05:59;;;;;;;21.33;11.30;;;23.60;50.30;;;;;;6166873;28;83482;-57
2022/11/07 07:09:00;;;;;;;16.42;10.45;;;23.60;50.20;;;;;;6174212;28;83483;-59
2022/11/07 07:12:00;;;;;;;17.90;9.77;;;23.60;50.30;;;;;;6172632;28;83431;-59
2022/11/07 07:15:01;;;;;;;15.07;9.98;;;23.60;50.30;;;;;;6174915;28;84497;-57
2022/11/07 07:18:01;;;;;;;13.48;9.10;;;23.60;50.20;;;;;;6167251;28;82829;-58
2022/11/07 07:21:02;;;;;;;16.80;8.77;;;23.60;50.90;;;;;;6177792;28;83053;-60
2022/11/07 07:24:02;;;;;;;12.65;8.20;;;23.60;50.20;;;;;;6170482;28;80468;-58
2022/11/07 07:27:03;;;;;;;13.68;8.00;;;23.60;50.10;;;;;;6178945;28;80813;-55
2022/11/07 07:30:03;;;;;;;13.18;8.85;;;23.60;50.10;;;;;;6166682;28;80458;-56
2022/11/07 07:33:04;;;;;;;12.02;8.38;;;23.60;50.00;;;;;;6177996;28;80606;-57
2022/11/07 07:36:04;;;;;;;12.63;8.85;;;23.60;49.90;;;;;;6190575;28;80364;-61
2022/11/07 07:39:05;;;;;;;14.35;8.90;;;23.50;49.80;;;;;;6156778;28;80830;-60
2022/11/07 07:42:05;;;;;;;12.30;8.77;;;23.60;50.00;;;;;;6172416;28;82664;-59
2022/11/07 07:45:06;;;;;;;14.93;8.65;;;23.60;50.00;;;;;;6180814;28;80792;-58
2022/11/07 07:48:06;;;;;;;12.32;7.75;;;23.50;49.90;;;;;;6181037;28;81270;-58
2022/11/07 07:51:07;;;;;;;11.93;8.07;;;23.50;49.90;;;;;;6182129;28;81311;-59
2022/11/07 07:54:08;;;;;;;11.18;8.07;;;23.50;49.80;;;;;;6179987;28;81258;-58
2022/11/07 07:57:09;;;;;;;13.18;8.48;;;23.50;50.00;;;;;;6171129;28;80850;-59
2022/11/07 08:00:09;;;;;;;10.98;7.43;;;23.50;50.00;;;;;;6179586;28;82709;-58
2022/11/07 08:03:12;;;;;;;11.50;8.02;;;23.50;49.90;;;;;;6179618;28;81178;-58
2022/11/07 08:06:12;;;;;;;11.07;8.02;;;23.50;49.80;;;;;;6172962;28;80986;-58
2022/11/07 08:09:13;;;;;;;12.70;8.52;;;23.50;49.70;;;;;;6181843;28;82526;-58
2022/11/07 08:12:13;;;;;;;11.27;7.47;;;23.60;49.80;;;;;;6196784;28;81803;-60
2022/11/07 08:15:14;;;;;;;10.88;7.78;;;23.60;49.90;;;;;;6174125;28;86512;-59
2022/11/07 08:18:14;;;;;;;10.73;7.57;;;23.60;50.00;;;;;;6188044;28;87578;-61
2022/11/07 08:21:15;;;;;;;9.82;7.50;;;23.60;50.00;;;;;;6189660;28;80646;-58
2022/11/07 08:24:15;;;;;;;11.55;7.10;;;23.60;50.00;;;;;;6195392;28;80580;-58
2022/11/07 08:27:16;;;;;;;11.00;7.90;;;23.50;50.10;;;;;;6191210;28;80674;-58
2022/11/07 08:30:16;;;;;;;10.98;7.70;;;23.60;50.30;;;;;;6192026;28;81531;-58
2022/11/07 08:33:17;;;;;;;12.93;7.18;;;23.60;50.40;;;;;;6168478;28;82369;-58
2022/11/07 08:36:17;;;;;;;12.05;8.13;;;23.60;50.50;;;;;;6199068;28;80610;-77
2022/11/07 08:39:18;;;;;;;11.20;7.68;;;23.60;50.50;;;;;;6202793;28;80270;-77
2022/11/07 08:42:18;;;;;;;11.30;7.68;;;23.60;50.50;;;;;;6193346;28;80689;-79
2022/11/07 08:45:19;;;;;;;11.10;7.43;;;23.60;50.40;;;;;;6170098;28;81284;-68
2022/11/07 08:48:19;;;;;;;11.65;7.53;;;23.70;50.40;;;;;;6179217;28;81196;-70
2022/11/07 08:51:20;;;;;;;13.00;7.45;;;23.80;50.50;;;;;;6182538;28;80530;-69
2022/11/07 08:54:20;;;;;;;10.32;7.10;;;23.90;50.70;;;;;;6180465;28;87067;-72
2022/11/07 08:57:21;;;;;;;21.80;8.85;;;24.00;50.20;;;;;;6193772;28;80555;-73
2022/11/07 09:00:21;;;;;;;14.40;7.78;;;24.00;50.40;;;;;;6202535;28;84398;-70
2022/11/07 09:03:22;;;;;;;13.07;7.60;;;24.00;50.40;;;;;;6167344;28;84299;-76
2022/11/07 09:06:22;;;;;;;28.45;7.97;;;24.00;50.50;;;;;;6162215;28;80622;-62
2022/11/07 09:09:23;;;;;;;14.70;7.45;;;24.00;50.40;;;;;;6175829;28;80739;-74
2022/11/07 09:12:24;;;;;;;9.82;7.18;;;24.00;50.80;;;;;;6180931;28;83639;-74
2022/11/07 09:15:24;;;;;;;16.38;8.05;;;24.00;50.90;;;;;;6176584;28;81306;-66
2022/11/07 09:18:25;;;;;;;17.60;7.30;;;24.00;50.50;;;;;;6176377;28;80899;-76
2022/11/07 09:21:25;;;;;;;10.18;7.35;;;23.90;50.60;;;;;;6174661;28;80435;-67
2022/11/07 09:24:26;;;;;;;14.25;7.35;;;23.90;50.50;;;;;;6212213;28;81593;-74
2022/11/07 09:27:26;;;;;;;11.68;7.40;;;24.00;50.50;;;;;;6197495;28;80724;-67
2022/11/07 09:30:27;;;;;;;13.35;7.20;;;23.90;50.30;;;;;;6174347;28;80647;-77
2022/11/07 09:33:27;;;;;;;18.40;7.68;;;23.90;50.50;;;;;;6201477;28;80944;-72
2022/11/07 09:36:28;;;;;;;10.75;7.03;;;23.90;50.70;;;;;;6161697;28;82122;-76
2022/11/07 09:39:28;;;;;;;15.98;8.73;;;23.90;50.60;;;;;;6191246;28;80972;-72
2022/11/07 09:42:29;;;;;;;11.57;7.53;;;24.00;50.70;;;;;;6177514;28;85570;-75
2022/11/07 09:45:29;;;;;;;10.95;7.13;;;24.00;50.60;;;;;;6213635;28;81837;-75
2022/11/07 09:48:30;;;;;;;9.00;7.13;;;24.00;50.50;;;;;;6182248;28;80292;-62
2022/11/07 09:51:30;;;;;;;11.90;7.40;;;24.00;50.50;;;;;;6176705;28;83070;-63
2022/11/07 09:54:31;;;;;;;10.77;7.25;;;24.00;50.40;;;;;;6174169;28;80782;-70
2022/11/07 09:57:31;;;;;;;10.75;7.53;;;24.00;50.70;;;;;;6173369;28;80888;-76
2022/11/07 10:00:32;;;;;;;11.05;7.18;;;24.00;50.20;;;;;;6176210;28;83159;-74
2022/11/07 10:03:32;;;;;;;12.98;6.82;;;24.00;50.30;;;;;;6170604;28;80950;-72
2022/11/07 10:06:33;;;;;;;9.40;5.93;;;24.00;50.50;;;;;;6175942;28;81250;-58
2022/11/07 10:09:33;;;;;;;16.13;6.80;;;24.00;50.50;;;;;;6198355;28;80095;-58
2022/11/07 10:12:34;;;;;;;9.40;6.30;;;24.00;50.80;;;;;;6194021;28;83420;-59
2022/11/07 10:15:34;;;;;;;15.00;6.43;;;24.00;51.00;;;;;;6172464;28;80906;-58
2022/11/07 10:18:35;;;;;;;9.23;6.45;;;24.00;50.80;;;;;;6175676;28;81286;-58
2022/11/07 10:21:35;;;;;;;9.23;6.30;;;24.00;50.80;;;;;;6171592;28;80455;-57
2022/11/07 10:24:36;;;;;;;10.07;6.95;;;24.00;50.80;;;;;;6179993;28;81134;-58
2022/11/07 10:27:36;;;;;;;10.88;7.15;;;24.00;50.80;;;;;;6197401;28;80845;-58
2022/11/07 10:30:38;;;;;;;11.02;6.80;;;24.00;50.90;;;;;;6176691;28;83604;-58
2022/11/07 10:33:40;;;;;;;10.48;6.70;;;24.00;50.90;;;;;;6179799;28;81671;-57
2022/11/07 10:36:40;;;;;;;13.05;6.47;;;23.90;50.90;;;;;;6197748;28;80646;-58
2022/11/07 10:39:41;;;;;;;10.43;7.38;;;23.90;50.80;;;;;;6194379;28;81595;-58
2022/11/07 10:42:41;;;;;;;12.90;7.00;;;23.90;50.80;;;;;;6174197;28;81221;-59
2022/11/07 10:45:42;;;;;;;13.48;7.07;;;23.90;51.00;;;;;;6155507;28;85135;-60
2022/11/07 10:48:42;;;;;;;8.73;6.55;;;23.90;51.00;;;;;;6165991;28;81302;-60
2022/11/07 10:51:43;;;;;;;11.20;7.43;;;23.90;50.80;;;;;;6180303;28;80863;-59
2022/11/07 10:54:43;;;;;;;12.20;6.68;;;23.90;51.00;;;;;;6199702;28;82390;-59
2022/11/07 10:57:44;;;;;;;14.68;7.57;;;23.90;51.00;;;;;;6170607;28;80662;-60
2022/11/07 11:00:44;;;;;;;13.50;7.25;;;23.90;51.20;;;;;;6175296;28;80349;-60
2022/11/07 11:03:45;;;;;;;8.65;6.65;;;23.90;51.10;;;;;;6172217;28;80759;-55
2022/11/07 11:06:46;;;;;;;11.52;7.28;;;23.90;51.20;;;;;;6162635;28;80204;-59
2022/11/07 11:09:46;;;;;;;16.42;7.18;;;23.90;51.30;;;;;;6168420;28;80974;-58
2022/11/07 11:12:47;;;;;;;11.75;7.35;;;23.90;51.30;;;;;;6169935;28;80492;-58
2022/11/07 11:15:47;;;;;;;12.45;6.55;;;23.90;51.30;;;;;;6183879;28;81842;-56
2022/11/07 11:18:48;;;;;;;17.25;6.93;;;23.90;51.50;;;;;;6167525;28;80636;-57
2022/11/07 11:21:48;;;;;;;13.38;7.63;;;24.00;51.20;;;;;;6169761;28;81633;-64
2022/11/07 11:24:49;;;;;;;9.77;6.55;;;24.00;50.80;;;;;;6178418;28;81283;-63
2022/11/07 11:27:50;;;;;;;13.23;7.70;;;24.00;50.50;;;;;;6175838;28;81182;-64
2022/11/07 11:30:50;;;;;;;14.18;6.68;;;23.90;50.00;;;;;;6175281;28;81484;-67
2022/11/07 11:33:51;;;;;;;9.27;6.28;;;24.00;49.60;;;;;;6160551;28;81493;-67
2022/11/07 11:36:51;;;;;;;9.07;6.43;;;24.00;49.40;;;;;;6178402;28;80731;-61
2022/11/07 11:39:52;;;;;;;10.65;5.85;;;23.90;48.80;;;;;;6161526;28;81221;-70
2022/11/07 11:42:52;;;;;;;53.20;23.60;;;23.90;48.20;;;;;;6168471;28;85543;-68
2022/11/07 11:45:53;;;;;;;222.75;92.90;;;23.90;47.30;;;;;;6164541;28;84125;-70
2022/11/07 11:48:53;;;;;;;247.82;100.95;;;23.90;47.00;;;;;;6164984;28;82970;-76
2022/11/07 11:51:54;;;;;;;260.83;108.30;;;23.90;46.90;;;;;;6160133;28;86174;-68
2022/11/07 11:54:54;;;;;;;326.38;135.32;;;23.90;46.20;;;;;;6159745;28;86533;-68
2022/11/07 11:57:55;;;;;;;275.20;115.20;;;24.00;45.80;;;;;;6165090;28;85944;-56
2022/11/07 12:00:55;;;;;;;280.38;110.70;;;24.00;45.60;;;;;;6171382;28;89585;-57
2022/11/07 12:03:56;;;;;;;207.25;86.75;;;24.00;45.30;;;;;;6190042;28;86108;-58
2022/11/07 12:06:56;;;;;;;162.90;67.80;;;24.00;45.00;;;;;;6178495;28;83927;-57
2022/11/07 12:09:57;;;;;;;130.60;53.58;;;24.00;44.80;;;;;;6193554;28;83470;-56
2022/11/07 12:12:57;;;;;;;114.45;46.92;;;23.90;44.60;;;;;;6186463;28;85053;-55
2022/11/07 12:15:58;;;;;;;82.57;33.45;;;24.00;44.50;;;;;;6163580;28;83502;-65
2022/11/07 12:18:58;;;;;;;69.25;28.90;;;24.00;44.50;;;;;;6188519;28;86237;-65
2022/11/07 12:21:59;;;;;;;66.10;26.20;;;24.00;44.20;;;;;;6175920;28;83705;-66
2022/11/07 12:24:59;;;;;;;48.33;21.80;;;24.00;44.10;;;;;;6196528;28;83257;-64
2022/11/07 12:28:00;;;;;;;45.03;18.33;;;23.90;44.10;;;;;;6203193;28;83749;-64
2022/11/07 12:31:01;;;;;;;36.28;15.48;;;23.90;43.80;;;;;;6194274;28;83453;-64
2022/11/07 12:34:02;;;;;;;27.58;12.23;;;24.00;43.50;;;;;;6161730;28;83906;-56
2022/11/07 12:37:02;;;;;;;30.63;11.98;;;23.90;43.30;;;;;;6154666;28;86318;-56
2022/11/07 12:40:03;;;;;;;28.20;10.77;;;23.90;43.30;;;;;;6173315;28;84893;-55
2022/11/07 12:43:04;;;;;;;19.45;9.32;;;23.80;43.30;;;;;;6208267;28;83048;-57
2022/11/07 12:46:04;;;;;;;16.30;8.35;;;23.90;43.40;;;;;;6172032;28;81672;-57
2022/11/07 12:49:05;;;;;;;22.63;7.22;;;23.90;43.00;;;;;;6185088;28;80888;-58
2022/11/07 12:52:06;;;;;;;11.18;6.35;;;24.00;43.00;;;;;;6199198;28;80865;-60
2022/11/07 12:55:06;;;;;;;13.02;6.82;;;24.10;43.00;;;;;;6194635;28;80816;-60
2022/11/07 12:58:07;;;;;;;10.73;5.80;;;24.10;43.00;;;;;;6173272;28;83120;-59
2022/11/07 13:01:07;;;;;;;9.70;5.53;;;24.20;43.00;;;;;;6177875;28;81248;-60
2022/11/07 13:04:08;;;;;;;12.52;5.38;;;24.20;42.90;;;;;;6185868;28;82001;-60
2022/11/07 13:07:08;;;;;;;11.40;5.25;;;24.30;43.10;;;;;;6172052;28;81342;-61
2022/11/07 13:10:08;;;;;;;10.55;4.38;;;24.40;43.20;;;;;;6179847;28;80108;-60
2022/11/07 13:13:09;;;;;;;11.23;4.35;;;24.40;42.90;;;;;;6188254;28;83288;-61
2022/11/07 13:16:10;;;;;;;7.68;3.80;;;24.40;42.70;;;;;;6195975;28;82284;-61
2022/11/07 13:19:10;;;;;;;7.55;3.92;;;24.40;42.50;;;;;;6173384;28;81115;-62
2022/11/07 13:22:11;;;;;;;8.35;3.92;;;24.50;42.70;;;;;;6182716;28;83730;-61
2022/11/07 13:25:11;;;;;;;5.55;3.38;;;24.50;42.60;;;;;;6194515;28;82042;-61
2022/11/07 13:28:12;;;;;;;7.28;3.25;;;24.50;42.20;;;;;;6198197;28;80739;-60
2022/11/07 13:31:12;;;;;;;7.63;3.40;;;24.50;42.50;;;;;;6192629;28;80074;-59
2022/11/07 13:34:13;;;;;;;5.45;3.03;;;24.50;42.00;;;;;;6185205;28;82378;-59
2022/11/07 13:37:13;;;;;;;4.20;2.63;;;24.50;42.00;;;;;;6182376;28;80530;-57
2022/11/07 13:40:14;;;;;;;5.50;2.65;;;24.50;41.90;;;;;;6191688;28;81115;-55
2022/11/07 13:43:15;;;;;;;4.13;2.42;;;24.60;41.70;;;;;;6147842;28;80610;-56
2022/11/07 13:46:15;;;;;;;6.07;2.83;;;24.50;41.90;;;;;;6164640;28;81707;-55
2022/11/07 13:49:16;;;;;;;5.55;2.60;;;24.50;41.80;;;;;;6180492;28;80618;-58
2022/11/07 13:52:16;;;;;;;8.40;3.00;;;24.50;41.80;;;;;;6191665;28;80689;-53
2022/11/07 13:55:17;;;;;;;6.53;3.13;;;24.50;41.80;;;;;;6178968;28;84939;-56
2022/11/07 13:58:17;;;;;;;8.43;2.78;;;24.40;41.70;;;;;;6170761;28;80911;-58
2022/11/07 14:01:18;;;;;;;4.00;2.00;;;24.40;41.70;;;;;;6187652;28;80501;-56
2022/11/07 14:04:18;;;;;;;4.78;2.70;;;24.40;41.60;;;;;;6190191;28;81075;-57
2022/11/07 14:07:19;;;;;;;6.30;2.50;;;24.40;41.80;;;;;;6175026;28;80495;-56
2022/11/07 14:10:19;;;;;;;6.80;3.30;;;24.40;41.70;;;;;;6185099;28;80598;-57
2022/11/07 14:13:21;;;;;;;5.22;2.85;;;24.30;41.70;;;;;;6188136;28;85161;-57
2022/11/07 14:16:21;;;;;;;4.68;2.67;;;24.30;42.00;;;;;;6191922;28;80999;-55
2022/11/07 14:19:25;;;;;;;4.15;2.65;;;24.30;42.10;;;;;;6176044;28;80507;-58
2022/11/07 14:22:25;;;;;;;6.45;2.70;;;24.30;42.40;;;;;;6164707;28;81176;-58
2022/11/07 14:25:26;;;;;;;7.25;2.97;;;24.10;41.50;;;;;;6170082;28;84192;-58
2022/11/07 14:28:27;;;;;;;5.05;3.03;;;24.10;41.90;;;;;;6167400;28;80587;-58
2022/11/07 14:31:28;;;;;;;6.25;3.10;;;24.10;41.70;;;;;;6170140;28;83262;-58
2022/11/07 14:34:28;;;;;;;4.47;2.60;;;24.00;41.70;;;;;;6166784;28;80635;-56
2022/11/07 14:37:29;;;;;;;5.25;2.85;;;23.90;42.00;;;;;;6183211;28;81097;-57
2022/11/07 14:40:29;;;;;;;7.90;2.75;;;23.80;42.20;;;;;;6183829;28;83722;-57
2022/11/07 14:43:30;;;;;;;3.78;2.60;;;23.80;42.30;;;;;;6168532;28;80689;-70
2022/11/07 14:46:31;;;;;;;5.50;3.92;;;23.70;42.30;;;;;;6172801;28;80785;-64
2022/11/07 14:49:31;;;;;;;5.50;2.95;;;23.70;42.70;;;;;;6179135;28;80649;-66
2022/11/07 14:52:32;;;;;;;7.25;3.15;;;23.60;42.80;;;;;;6181261;28;80415;-66
2022/11/07 14:55:32;;;;;;;5.25;3.08;;;23.70;43.20;;;;;;6178011;28;80678;-66
2022/11/07 14:58:33;;;;;;;6.25;2.75;;;23.70;43.10;;;;;;6175779;28;80618;-66
2022/11/07 15:01:33;;;;;;;8.68;3.10;;;23.70;43.10;;;;;;6176830;28;80943;-69
2022/11/07 15:04:34;;;;;;;4.35;2.80;;;23.70;43.10;;;;;;6179137;28;80402;-69
2022/11/07 15:07:34;;;;;;;5.28;3.53;;;23.70;43.20;;;;;;6184268;28;87652;-67
2022/11/07 15:10:36;;;;;;;6.07;3.03;;;23.70;43.50;;;;;;6195402;28;82318;-68
2022/11/07 15:13:37;;;;;;;10.82;3.08;;;23.70;43.90;;;;;;6198801;28;83647;-67
2022/11/07 15:16:38;;;;;;;4.50;2.47;;;23.70;44.00;;;;;;6197231;28;80342;-68
2022/11/07 15:19:38;;;;;;;7.70;3.05;;;23.70;44.10;;;;;;6201694;28;80602;-68
2022/11/07 15:22:39;;;;;;;8.65;3.40;;;23.70;44.80;;;;;;6210574;28;80944;-68
2022/11/07 15:25:39;;;;;;;7.00;3.33;;;23.70;45.40;;;;;;6190096;28;80378;-69
2022/11/07 15:28:40;;;;;;;10.13;3.50;;;23.70;46.10;;;;;;6175755;28;85282;-65
2022/11/07 15:31:40;;;;;;;9.85;3.80;;;23.70;46.40;;;;;;6179566;28;80667;-68
2022/11/07 15:34:41;;;;;;;17.08;3.92;;;23.70;46.90;;;;;;6173344;28;82776;-66
2022/11/07 15:37:41;;;;;;;9.57;3.22;;;23.80;47.10;;;;;;6186410;28;80913;-60
2022/11/07 15:40:42;;;;;;;4.05;2.53;;;23.80;47.50;;;;;;6183400;28;81525;-60
2022/11/07 15:43:42;;;;;;;8.98;3.47;;;23.80;48.10;;;;;;6168775;28;80385;-60